Météo Nord-Pas-de-Calais   La météo au plus près de chez vous

Station météorologique

Observations météo à Leran (09161)

09161003 391 m Dernier relevé à 17:54
36.3°C
Humidité 19 % Vent 14 km/h

Journée consultée

Vendredi 4 Septembre 2026

Synthèse de la journée

Périodes de référence en UTC

Température maximale

36.8°C

à 16:00

06h 06h

Température minimale

11.8°C

à 07:00

18h 18h

Rafale maximale

33 km/h

à 13:30

00h 00h

Précipitations

0 mm

Cumul quotidien

06h 06h

Graphiques de la journée

Heure locale Réduire

Données détaillées

Relevés météo

Pas de 6 minutes Afficher les relevés infra-horaires
Relevés météo détaillés à Leran pour le Vendredi 4 Septembre 2026
Heure Température °C Point de rosée °C Humidité % Vent moyen (raf.), km/h Précipitations mm
17:54 36.3 °C 8.2 °C 18 % 15 km/h (30 km/h) 0 mm0 mm
17:48 36.1 °C 8 °C 18 % 14 km/h (25 km/h) 0 mm0 mm
17:42 36.3 °C 8.2 °C 18 % 13 km/h (25 km/h) 0 mm0 mm
17:36 36.3 °C 8.2 °C 18 % 14 km/h (24 km/h) 0 mm0 mm
17:30 36.3 °C 7.4 °C 17 % 13 km/h (22 km/h) 0 mm0 mm
17:24 36.6 °C 7.6 °C 17 % 12 km/h (22 km/h) 0 mm0 mm
17:18 36.2 °C 8.1 °C 18 % 14 km/h (23 km/h) 0 mm0 mm
17:12 36.4 °C 7.4 °C 17 % 14 km/h (23 km/h) 0 mm0 mm
17:06 36.5 °C 7.5 °C 17 % 13 km/h (27 km/h) 0 mm0 mm
17:00 36.4 °C 8.3 °C 18 % 13 km/h (27 km/h) 0 mm0 mm
16:54 36.2 °C 8.9 °C 19 % 14 km/h (31 km/h) 0 mm0 mm
16:48 36.3 °C 8.2 °C 18 % 14 km/h (31 km/h) 0 mm0 mm
16:42 36.3 °C 7.4 °C 17 % 13 km/h (29 km/h) 0 mm0 mm
16:36 36.3 °C 8.2 °C 18 % 14 km/h (28 km/h) 0 mm0 mm
16:30 36.7 °C 8.5 °C 18 % 14 km/h (27 km/h) 0 mm0 mm
16:24 36.3 °C 8.2 °C 18 % 16 km/h (28 km/h) 0 mm0 mm
16:18 36.2 °C 8.1 °C 18 % 15 km/h (31 km/h) 0 mm0 mm
16:12 36.2 °C 8.9 °C 19 % 14 km/h (31 km/h) 0 mm0 mm
16:06 36.2 °C 8.1 °C 18 % 15 km/h (29 km/h) 0 mm0 mm
16:00 36.6 °C 8.4 °C 18 % 12 km/h (26 km/h) 0 mm0 mm
15:54 36.7 °C 9.3 °C 19 % 12 km/h (24 km/h) 0 mm0 mm
15:48 36.2 °C 8.9 °C 19 % 14 km/h (29 km/h) 0 mm0 mm
15:42 36.7 °C 8.5 °C 18 % 13 km/h (26 km/h) 0 mm0 mm
15:36 36.4 °C 9.1 °C 19 % 13 km/h (27 km/h) 0 mm0 mm
15:30 36.4 °C 9.1 °C 19 % 13 km/h (27 km/h) 0 mm0 mm
15:24 36.2 °C 9.7 °C 20 % 13 km/h (28 km/h) 0 mm0 mm
15:18 36.6 °C 9.2 °C 19 % 13 km/h (28 km/h) 0 mm0 mm
15:12 36.3 °C 9.8 °C 20 % 16 km/h (28 km/h) 0 mm0 mm
15:06 36.3 °C 9.8 °C 20 % 17 km/h (32 km/h) 0 mm0 mm
15:00 36.1 °C 8.8 °C 19 % 15 km/h (32 km/h) 0 mm0 mm
14:54 36.4 °C 9.8 °C 20 % 12 km/h (25 km/h) 0 mm0 mm
14:48 36.1 °C 8.8 °C 19 % 15 km/h (30 km/h) 0 mm0 mm
14:42 35.9 °C 8.7 °C 19 % 16 km/h (28 km/h) 0 mm0 mm
14:36 36.2 °C 8.1 °C 18 % 17 km/h (27 km/h) 0 mm0 mm
14:30 36 °C 8.7 °C 19 % 18 km/h (27 km/h) 0 mm0 mm
14:24 36 °C 8.7 °C 19 % 15 km/h (28 km/h) 0 mm0 mm
14:18 36.4 °C 8.3 °C 18 % 12 km/h (28 km/h) 0 mm0 mm
14:12 36.3 °C 8.2 °C 18 % 12 km/h (31 km/h) 0 mm0 mm
14:06 36.1 °C 8 °C 18 % 15 km/h (31 km/h) 0 mm0 mm
14:00 35.9 °C 8.7 °C 19 % 18 km/h (28 km/h) 0 mm0 mm
13:54 35.8 °C 7.8 °C 18 % 18 km/h (28 km/h) 0 mm0 mm
13:48 36.1 °C 8 °C 18 % 15 km/h (28 km/h) 0 mm0 mm
13:42 35.8 °C 7.8 °C 18 % 13 km/h (27 km/h) 0 mm0 mm
13:36 36.3 °C 7.4 °C 17 % 14 km/h (33 km/h) 0 mm0 mm
13:30 35.8 °C 6.9 °C 17 % 15 km/h (33 km/h) 0 mm0 mm
13:24 35.8 °C 6.9 °C 17 % 15 km/h (31 km/h) 0 mm0 mm
13:18 35.9 °C 7 °C 17 % 15 km/h (31 km/h) 0 mm0 mm
13:12 36.1 °C 8 °C 18 % 11 km/h (21 km/h) 0 mm0 mm
13:06 35.9 °C 7 °C 17 % 11 km/h (23 km/h) 0 mm0 mm
13:00 35.9 °C 7.9 °C 18 % 12 km/h (25 km/h) 0 mm0 mm
12:54 35.3 °C 7.4 °C 18 % 13 km/h (25 km/h) 0 mm0 mm
12:48 35.2 °C 8.1 °C 19 % 12 km/h (23 km/h) 0 mm0 mm
12:42 35.3 °C 8.9 °C 20 % 9 km/h (23 km/h) 0 mm0 mm
12:36 35.6 °C 9.9 °C 21 % 3 km/h (11 km/h) 0 mm0 mm
12:30 35 °C 10.8 °C 23 % 3 km/h (11 km/h) 0 mm0 mm
12:24 34 °C 9.9 °C 23 % 3 km/h (7 km/h) 0 mm0 mm
12:18 33.9 °C 10.5 °C 24 % 4 km/h (8 km/h) 0 mm0 mm
12:12 33.2 °C 10.5 °C 25 % 4 km/h (8 km/h) 0 mm0 mm
12:06 33.1 °C 11 °C 26 % 3 km/h (6 km/h) 0 mm0 mm
12:00 32.7 °C 10.7 °C 26 % 2 km/h (6 km/h) 0 mm0 mm
11:54 32.3 °C 10.3 °C 26 % 3 km/h (7 km/h) 0 mm0 mm
11:48 32.2 °C 10.3 °C 26 % 3 km/h (6 km/h) 0 mm0 mm
11:42 32.1 °C 10.2 °C 26 % 2 km/h (5 km/h) 0 mm0 mm
11:36 31.6 °C 9.8 °C 26 % 2 km/h (5 km/h) 0 mm0 mm
11:30 31.5 °C 10.2 °C 27 % 3 km/h (6 km/h) 0 mm0 mm
11:24 31 °C 10.9 °C 29 % 3 km/h (6 km/h) 0 mm0 mm
11:18 31 °C 11.4 °C 30 % 3 km/h (5 km/h) 0 mm0 mm
11:12 30.5 °C 11.5 °C 31 % 4 km/h (6 km/h) 0 mm0 mm
11:06 30.6 °C 12 °C 32 % 2 km/h (6 km/h) 0 mm0 mm
11:00 30.5 °C 11.5 °C 31 % 3 km/h (6 km/h) 0 mm0 mm
10:54 29.7 °C 10.8 °C 31 % 3 km/h (6 km/h) 0 mm0 mm
10:48 29.4 °C 11 °C 32 % 3 km/h (5 km/h) 0 mm0 mm
10:42 28.7 °C 11.7 °C 35 % 3 km/h (5 km/h) 0 mm0 mm
10:36 27.8 °C 12.6 °C 39 % 3 km/h (5 km/h) 0 mm0 mm
10:30 27.3 °C 12.1 °C 39 % 2 km/h (4 km/h) 0 mm0 mm
10:24 26.5 °C 12.2 °C 41 % 2 km/h (4 km/h) 0 mm0 mm
10:18 26 °C 12.8 °C 44 % 2 km/h (4 km/h) 0 mm0 mm
10:12 25.5 °C 12.3 °C 44 % 2 km/h (4 km/h) 0 mm0 mm
10:06 25.2 °C 12.1 °C 44 % 2 km/h (5 km/h) 0 mm0 mm
10:00 25.1 °C 12.7 °C 46 % 2 km/h (5 km/h) 0 mm0 mm
09:54 24.4 °C 13.6 °C 51 % 2 km/h (5 km/h) 0 mm0 mm
09:48 23.3 °C 13.2 °C 53 % 2 km/h (5 km/h) 0 mm0 mm
09:42 22.4 °C 13.5 °C 57 % 2 km/h (4 km/h) 0 mm0 mm
09:36 22 °C 13.4 °C 58 % 0 km/h (4 km/h) 0 mm0 mm
09:30 21.1 °C 13.3 °C 61 % 0 km/h (4 km/h) 0 mm0 mm
09:24 20.6 °C 13.3 °C 63 % 0 km/h (4 km/h) 0 mm0 mm
09:18 20 °C 13.2 °C 65 % 0 km/h (3 km/h) 0 mm0 mm
09:12 19.6 °C 13.3 °C 67 % 0 km/h (3 km/h) 0 mm0 mm
09:06 18.6 °C 13.2 °C 71 % 2 km/h (3 km/h) 0 mm0 mm
09:00 18.2 °C 13.3 °C 73 % 2 km/h (4 km/h) 0 mm0 mm
08:54 17.7 °C 13.2 °C 75 % 2 km/h (4 km/h) 0 mm0 mm
08:48 17.2 °C 13.3 °C 78 % 0 km/h (4 km/h) 0 mm0 mm
08:42 16.5 °C 12.8 °C 79 % 0 km/h (4 km/h) 0 mm0 mm
08:36 15.7 °C 12.3 °C 80 % 2 km/h (4 km/h) 0 mm0 mm
08:30 15.2 °C 12.1 °C 82 % 0 km/h (4 km/h) 0 mm0 mm
08:24 14.7 °C 12.2 °C 85 % 0 km/h (3 km/h) 0 mm0 mm
08:18 14.1 °C 12 °C 87 % 0 km/h (2 km/h) 0 mm0 mm
08:12 13.7 °C 11.9 °C 89 % 0 km/h (2 km/h) 0 mm0 mm
08:06 13.6 °C 11.6 °C 88 % 0 km/h (2 km/h) 0 mm0 mm
08:00 13.1 °C 11.3 °C 89 % 0 km/h (2 km/h) 0 mm0 mm
07:54 12.8 °C 11.4 °C 91 % 0 km/h (0 km/h) 0 mm0 mm
07:48 12.5 °C 11.2 °C 92 % 0 km/h (0 km/h) 0 mm0 mm
07:42 12 °C 10.6 °C 91 % 0 km/h (0 km/h) 0 mm0 mm
07:36 11.8 °C 10.4 °C 91 % 0 km/h (0 km/h) 0 mm0 mm
07:30 11.8 °C 10.4 °C 91 % 2 km/h (5 km/h) 0 mm0 mm
07:24 11.8 °C 10.4 °C 91 % 3 km/h (5 km/h) 0 mm0 mm
07:18 11.8 °C 10.4 °C 91 % 3 km/h (4 km/h) 0 mm0 mm
07:12 11.8 °C 10.4 °C 91 % 4 km/h (6 km/h) 0 mm0 mm
07:06 11.8 °C 10.4 °C 91 % 4 km/h (5 km/h) 0 mm0 mm
07:00 11.8 °C 10.4 °C 91 % 2 km/h (4 km/h) 0 mm0 mm
06:54 11.9 °C 10.6 °C 92 % 0 km/h (2 km/h) 0 mm0 mm
06:48 11.9 °C 10.5 °C 91 % 0 km/h (2 km/h) 0 mm0 mm
06:42 11.9 °C 10.5 °C 91 % 0 km/h (3 km/h) 0 mm0 mm
06:36 12 °C 10.6 °C 91 % 0 km/h (3 km/h) 0 mm0 mm
06:30 11.9 °C 10.3 °C 90 % 0 km/h (2 km/h) 0 mm0 mm
06:24 12 °C 10.4 °C 90 % 0 km/h (2 km/h) 0 mm0 mm
06:18 12.3 °C 11 °C 92 % 0 km/h (3 km/h) 0 mm0 mm
06:12 12.1 °C 10.5 °C 90 % 2 km/h (4 km/h) 0 mm0 mm
06:06 12.2 °C 10.6 °C 90 % 3 km/h (5 km/h) 0 mm0 mm
06:00 12.2 °C 10.8 °C 91 % 3 km/h (5 km/h) 0 mm0 mm
05:54 12.2 °C 10.6 °C 90 % 2 km/h (5 km/h) 0 mm0 mm
05:48 12.4 °C 11 °C 91 % 0 km/h (2 km/h) 0 mm0 mm
05:42 12.4 °C 11 °C 91 % 0 km/h (0 km/h) 0 mm0 mm
05:36 12.3 °C 10.9 °C 91 % 0 km/h (2 km/h) 0 mm0 mm
05:30 12.2 °C 10.6 °C 90 % 0 km/h (3 km/h) 0 mm0 mm
05:24 12.1 °C 10.2 °C 88 % 0 km/h (3 km/h) 0 mm0 mm
05:18 12.2 °C 10.3 °C 88 % 0 km/h (2 km/h) 0 mm0 mm
05:12 12.4 °C 10.3 °C 87 % 0 km/h (4 km/h) 0 mm0 mm
05:06 12.6 °C 10.7 °C 88 % 3 km/h (5 km/h) 0 mm0 mm
05:00 12.5 °C 10.6 °C 88 % 3 km/h (4 km/h) 0 mm0 mm
04:54 12.6 °C 10.7 °C 88 % 0 km/h (3 km/h) 0 mm0 mm
04:48 12.6 °C 10.7 °C 88 % 3 km/h (5 km/h) 0 mm0 mm
04:42 12.6 °C 10.7 °C 88 % 3 km/h (5 km/h) 0 mm0 mm
04:36 12.6 °C 10.7 °C 88 % 2 km/h (4 km/h) 0 mm0 mm
04:30 12.7 °C 11.1 °C 90 % 0 km/h (3 km/h) 0 mm0 mm
04:24 12.8 °C 11 °C 89 % 0 km/h (2 km/h) 0 mm0 mm
04:18 12.7 °C 10.6 °C 87 % 0 km/h (3 km/h) 0 mm0 mm
04:12 12.7 °C 10.6 °C 87 % 2 km/h (4 km/h) 0 mm0 mm
04:06 12.6 °C 10.3 °C 86 % 0 km/h (3 km/h) 0 mm0 mm
04:00 12.7 °C 10.4 °C 86 % 0 km/h (2 km/h) 0 mm0 mm
03:54 12.8 °C 10.5 °C 86 % 0 km/h (2 km/h) 0 mm0 mm
03:48 13.1 °C 11.2 °C 88 % 0 km/h (0 km/h) 0 mm0 mm
03:42 13.2 °C 11.3 °C 88 % 0 km/h (3 km/h) 0 mm0 mm
03:36 13.2 °C 11.1 °C 87 % 2 km/h (4 km/h) 0 mm0 mm
03:30 13.2 °C 10.7 °C 85 % 2 km/h (4 km/h) 0 mm0 mm
03:24 13.4 °C 11.1 °C 86 % 0 km/h (3 km/h) 0 mm0 mm
03:18 13.4 °C 10.9 °C 85 % 2 km/h (4 km/h) 0 mm0 mm
03:12 13.5 °C 11 °C 85 % 3 km/h (4 km/h) 0 mm0 mm
03:06 13.5 °C 11 °C 85 % 2 km/h (4 km/h) 0 mm0 mm
03:00 13.5 °C 10.7 °C 83 % 2 km/h (4 km/h) 0 mm0 mm
02:54 13.6 °C 10.8 °C 83 % 4 km/h (6 km/h) 0 mm0 mm
02:48 13.7 °C 10.9 °C 83 % 5 km/h (7 km/h) 0 mm0 mm
02:42 13.7 °C 10.9 °C 83 % 4 km/h (5 km/h) 0 mm0 mm
02:36 13.9 °C 11.6 °C 86 % 3 km/h (5 km/h) 0 mm0 mm
02:30 13.8 °C 11 °C 83 % 3 km/h (4 km/h) 0 mm0 mm
02:24 13.8 °C 10.8 °C 82 % 2 km/h (3 km/h) 0 mm0 mm
02:18 13.8 °C 10.8 °C 82 % 2 km/h (3 km/h) 0 mm0 mm
02:12 13.9 °C 10.9 °C 82 % 0 km/h (2 km/h) 0 mm0 mm
02:06 14.1 °C 11.6 °C 85 % 0 km/h (0 km/h) 0 mm0 mm
02:00 14.2 °C 11.7 °C 85 % 0 km/h (0 km/h) 0 mm0 mm
01:54 14.2 °C 11.4 °C 83 % 0 km/h (0 km/h) 0 mm0 mm
01:48 14.2 °C 11.2 °C 82 % 0 km/h (0 km/h) 0 mm0 mm
01:42 14.3 °C 11.1 °C 81 % 0 km/h (0 km/h) 0 mm0 mm
01:36 14.5 °C 11.1 °C 80 % 0 km/h (2 km/h) 0 mm0 mm
01:30 14.7 °C 11.3 °C 80 % 0 km/h (3 km/h) 0 mm0 mm
01:24 14.7 °C 11.3 °C 80 % 2 km/h (3 km/h) 0 mm0 mm
01:18 14.5 °C 10.5 °C 77 % 2 km/h (3 km/h) 0 mm0 mm
01:12 14.8 °C 11.2 °C 79 % 2 km/h (4 km/h) 0 mm0 mm
01:06 15 °C 11.2 °C 78 % 2 km/h (4 km/h) 0 mm0 mm
01:00 15.1 °C 11.1 °C 77 % 0 km/h (4 km/h) 0 mm0 mm
00:54 15.1 °C 11.1 °C 77 % 3 km/h (5 km/h) 0 mm0 mm
00:48 15.2 °C 11 °C 76 % 3 km/h (5 km/h) 0 mm0 mm
00:42 15.3 °C 11.1 °C 76 % 3 km/h (4 km/h) 0 mm0 mm
00:36 15.3 °C 11.1 °C 76 % 3 km/h (4 km/h) 0 mm0 mm
00:30 15.4 °C 11 °C 75 % 3 km/h (4 km/h) 0 mm0 mm
00:24 15.4 °C 11 °C 75 % 2 km/h (4 km/h) 0 mm0 mm
00:18 15.5 °C 11.1 °C 75 % 0 km/h (2 km/h) 0 mm0 mm
00:12 15.7 °C 11.9 °C 78 % 0 km/h (2 km/h) 0 mm0 mm
00:06 15.9 °C 11.9 °C 77 % 0 km/h (3 km/h) 0 mm0 mm
00:00 16 °C 11.4 °C 74 % 2 km/h (4 km/h) 0 mm0 mm

Données via Météo-France

Relevés météo à Leran

Cette page rassemble les observations de la station de Leran : température, humidité, vent, précipitations et pression atmosphérique. Les graphiques facilitent le suivi de la journée, tandis que le tableau donne accès aux mesures horaires et infra-horaires disponibles.

Pour replacer ces mesures dans leur contexte, consultez la climatologie de Leran ainsi que ses normales et records. Retrouvez aussi la carte des observations météo en temps réel.